1891 Major Hurricane NOT_NAMED (1891278N12277)


IBTrACS version v04r00. Visit IBTrACS website for data access.
Please direct all questions to the IBTrACS Q and A forum

Storm track - Intensity - Wind Radii - Intensity Data - Source Data - All data

Summary Information

Storm ID 1891278N12277
Start Oct 5 00Z
Landfall Oct 11 09Z, Oct 14 15Z
Max Intensity 120 kt (Oct 10 18Z), 951 mb (Oct 10 18Z)
End Oct 15 00Z
ATCF IDs
Track status Best track data.

Storm track plot

Map of storm track

Intensity plots

Map of storm track

Radial wind information

No radial wind information for this storm


Position and Intensity Table

BASIN ISO_TIME_________ NATURE LAT LON MLC WIND MLC PRES
degrees north degrees east kts mb
NA 1891-10-05 00:00:00 TS 12.00 -83.50 30
NA 03:00:00 TS 12.11 -83.45 30
NA 06:00:00 TS 12.20 -83.40 30
NA 09:00:00 TS 12.26 -83.35 30
NA 12:00:00 TS 12.30 -83.30 30
NA 15:00:00 TS 12.35 -83.24 30
NA 18:00:00 TS 12.40 -83.20 30
NA 21:00:00 TS 12.42 -83.20 32
NA 1891-10-06 00:00:00 TS 12.50 -83.20 35
NA 03:00:00 TS 12.73 -83.16 37
NA 06:00:00 TS 13.00 -83.10 40
NA 09:00:00 TS 13.21 -83.05 42
NA 12:00:00 TS 13.40 -83.00 45
NA 15:00:00 TS 13.61 -82.95 45
NA 18:00:00 TS 13.80 -82.90 45
NA 21:00:00 TS 13.91 -82.86
NA 1891-10-07 00:00:00 TS 13.97 -82.84
NA 03:00:00 TS 14.00 -82.82
NA 06:00:00 TS 14.03 -82.81
NA 09:00:00 TS 14.09 -82.80
NA 12:00:00 TS 14.20 -82.80 45
NA 15:00:00 TS 14.39 -82.80 47
NA 18:00:00 TS 14.60 -82.80 50
NA 21:00:00 TS 14.80 -82.80 52
NA 1891-10-08 00:00:00 TS 15.00 -82.80 55
NA 03:00:00 TS 15.20 -82.80 57
NA 06:00:00 TS 15.40 -82.80 60
NA 09:00:00 TS 15.60 -82.79 60
NA 12:00:00 TS 15.80 -82.80 60
NA 15:00:00 TS 16.00 -82.89 62
NA 18:00:00 TS 16.20 -83.00 65
NA 21:00:00 TS 16.40 -83.05 70
NA 1891-10-09 00:00:00 TS 16.60 -83.10 75
NA 03:00:00 TS 16.81 -83.20 80
NA 06:00:00 TS 17.00 -83.30 85
NA 09:00:00 TS 17.16 -83.35 90
NA 12:00:00 TS 17.30 -83.40 95
NA 15:00:00 TS 17.45 -83.49 97
NA 18:00:00 NR 17.60 -83.60 100
NA 21:00:00 NR 17.75 -83.70 102
NA 1891-10-10 00:00:00 NR 17.90 -83.80 105
NA 03:00:00 NR 18.05 -83.90 107
NA 06:00:00 NR 18.20 -84.00 110
NA 09:00:00 NR 18.30 -84.04 112
NA 12:00:00 NR 18.50 -84.20 115
NA 15:00:00 NR 18.91 -84.64 117
NA 18:00:00 NR 19.40 -85.20 120 951
NA 21:00:00 NR 19.90 -85.72 115
NA 1891-10-11 00:00:00 NR 20.30 -86.20 110
NA 03:00:00 NR 20.46 -86.57 105
NA 06:00:00 NR 20.50 -86.90 100
NA 09:00:00 NR 20.57 -87.26 92
NA 12:00:00 TS 20.60 -87.60 85
NA 15:00:00 TS 20.56 -87.87 80
NA 18:00:00 TS 20.50 -88.10 75
NA 21:00:00 TS 20.45 -88.35 70
NA 1891-10-12 00:00:00 TS 20.40 -88.60 65
NA 03:00:00 TS 20.35 -88.85 60
NA 06:00:00 TS 20.30 -89.10 55
NA 09:00:00 TS 20.26 -89.35 50
NA 12:00:00 TS 20.20 -89.60 45
NA 15:00:00 TS 20.11 -89.85 42
NA 18:00:00 TS 20.00 -90.10 40
NA 21:00:00 TS 19.91 -90.35 40
NA 1891-10-13 00:00:00 TS 19.80 -90.60 40
NA 03:00:00 TS 19.65 -90.85 42
NA 06:00:00 TS 19.50 -91.10 45
NA 09:00:00 TS 19.40 -91.36 47
NA 12:00:00 TS 19.30 -91.60 50
NA 15:00:00 TS 19.15 -91.81 52
NA 18:00:00 TS 19.00 -92.00 55
NA 21:00:00 TS 18.89 -92.20 55
NA 1891-10-14 00:00:00 TS 18.80 -92.40 55
NA 03:00:00 TS 18.70 -92.60 55
NA 06:00:00 TS 18.60 -92.80 55
NA 09:00:00 TS 18.51 -93.00 52
NA 12:00:00 TS 18.40 -93.20 50
NA 15:00:00 TS 18.21 -93.40 47
NA 18:00:00 TS 18.00 -93.60 45
NA 21:00:00 TS 17.84 -93.80 35
NA 1891-10-15 00:00:00 TS 17.70 -94.00 25

Source Information

Agency Information
USA
TOKYO
CMA
HKO
NEWDELHI
REUNION
BOM
NADI
WELLINGTON
DS824
TD9636
TD9635
NEUMANN
MLC

All available IBTrACS Data

SEASON BASIN SUBBASIN ISO_TIME_________ NATURE LAT LON DIST2LAND LANDFALL IFLAG USA SSHS MLC LAT MLC LON MLC CLASS MLC WIND MLC PRES STORM SPEED STORM DIR
Year degrees north degrees east km km 1 degrees north degrees east kts mb kts degrees
1891 NA CS 1891-10-05 00:00:00 TS 12.00 -83.50 21 21 _____________O -1 12.00 -83.50 TD 30 2 28
1891 NA CS 03:00:00 TS 12.11 -83.45 21 21 _____________P -1 12.11 -83.45 TD 30 2 27
1891 NA CS 06:00:00 TS 12.20 -83.40 24 15 _____________O -1 12.20 -83.40 TD 30 2 34
1891 NA CS 09:00:00 TS 12.26 -83.35 24 24 _____________P -1 12.26 -83.35 TD 30 1 43
1891 NA CS 12:00:00 TS 12.30 -83.30 24 24 _____________O -1 12.30 -83.30 TD 30 1 48
1891 NA CS 15:00:00 TS 12.35 -83.24 32 32 _____________P -1 12.35 -83.24 TD 30 1 43
1891 NA CS 18:00:00 TS 12.40 -83.20 32 32 _____________O -1 12.40 -83.20 TD 30 1 28
1891 NA CS 21:00:00 TS 12.42 -83.20 32 32 _____________P -1 12.42 -83.20 TD 32 1 0
1891 NA CS 1891-10-06 00:00:00 TS 12.50 -83.20 32 32 _____________O -1 12.50 -83.20 TS 35 3 6
1891 NA CS 03:00:00 TS 12.73 -83.16 32 32 _____________P -1 12.73 -83.16 TS 37 5 11
1891 NA CS 06:00:00 TS 13.00 -83.10 43 43 _____________O -1 13.00 -83.10 TS 40 5 12
1891 NA CS 09:00:00 TS 13.21 -83.05 54 54 _____________P -1 13.21 -83.05 TS 42 4 13
1891 NA CS 12:00:00 TS 13.40 -83.00 54 54 _____________O -1 13.40 -83.00 TS 45 4 13
1891 NA CS 15:00:00 TS 13.61 -82.95 64 58 _____________P -1 13.61 -82.95 TS 45 4 13
1891 NA CS 18:00:00 TS 13.80 -82.90 58 54 _____________O -1 13.80 -82.90 TS 45 3 15
1891 NA CS 21:00:00 TS 13.91 -82.86 54 54 _____________P -1 13.91 -82.86 TS 2 17
1891 NA CS 1891-10-07 00:00:00 TS 13.97 -82.84 54 54 _____________P -1 13.97 -82.84 TS 1 23
1891 NA CS 03:00:00 TS 14.00 -82.82 54 54 _____________P -1 14.00 -82.82 TS 1 25
1891 NA CS 06:00:00 TS 14.03 -82.81 54 48 _____________P -1 14.03 -82.81 TS 1 0
1891 NA CS 09:00:00 TS 14.09 -82.80 48 44 _____________P -1 14.09 -82.80 TS 2 0
1891 NA CS 12:00:00 TS 14.20 -82.80 44 43 _____________O -1 14.20 -82.80 TS 45 3 0
1891 NA CS 15:00:00 TS 14.39 -82.80 44 44 _____________P -1 14.39 -82.80 TS 47 4 0
1891 NA CS 18:00:00 TS 14.60 -82.80 53 39 _____________O -1 14.60 -82.80 TS 50 4 0
1891 NA CS 21:00:00 TS 14.80 -82.80 39 32 _____________P -1 14.80 -82.80 TS 52 4 0
1891 NA CS 1891-10-08 00:00:00 TS 15.00 -82.80 32 32 _____________O -1 15.00 -82.80 TS 55 4 0
1891 NA CS 03:00:00 TS 15.20 -82.80 39 39 _____________P -1 15.20 -82.80 TS 57 4 0
1891 NA CS 06:00:00 TS 15.40 -82.80 55 55 _____________O -1 15.40 -82.80 TS 60 4 0
1891 NA CS 09:00:00 TS 15.60 -82.79 72 72 _____________P -1 15.60 -82.79 TS 60 4 0
1891 NA CS 12:00:00 TS 15.80 -82.80 85 85 _____________O -1 15.80 -82.80 TS 60 4 346
1891 NA CS 15:00:00 TS 16.00 -82.89 94 94 _____________P -1 16.00 -82.89 TS 62 4 334
1891 NA CS 18:00:00 TS 16.20 -83.00 109 109 _____________O -1 16.20 -83.00 HU 65 4 339
1891 NA CS 21:00:00 TS 16.40 -83.05 127 127 _____________P -1 16.40 -83.05 HU 70 4 347
1891 NA CS 1891-10-09 00:00:00 TS 16.60 -83.10 147 147 _____________O -1 16.60 -83.10 HU 75 4 341
1891 NA CS 03:00:00 TS 16.81 -83.20 159 159 _____________P -1 16.81 -83.20 HU 80 4 335
1891 NA CS 06:00:00 TS 17.00 -83.30 171 171 _____________O -1 17.00 -83.30 HU 85 4 338
1891 NA CS 09:00:00 TS 17.16 -83.35 183 183 _____________P -1 17.16 -83.35 HU 90 3 343
1891 NA CS 12:00:00 TS 17.30 -83.40 193 193 _____________O -1 17.30 -83.40 HU 95 3 335
1891 NA CS 15:00:00 TS 17.45 -83.49 208 204 _____________P -1 17.45 -83.49 HU 97 4 328
1891 NA CS 18:00:00 NR 17.60 -83.60 214 214 _____________O -1 17.60 -83.60 MH 100 4 327
1891 NA CS 21:00:00 NR 17.75 -83.70 222 222 _____________P -1 17.75 -83.70 MH 102 4 328
1891 NA CS 1891-10-10 00:00:00 NR 17.90 -83.80 240 240 _____________O -1 17.90 -83.80 MH 105 4 328
1891 NA CS 03:00:00 NR 18.05 -83.90 260 249 _____________P -1 18.05 -83.90 MH 107 4 328
1891 NA CS 06:00:00 NR 18.20 -84.00 267 267 _____________O -1 18.20 -84.00 MH 110 3 333
1891 NA CS 09:00:00 NR 18.30 -84.04 278 276 _____________P -1 18.30 -84.04 MH 112 4 328
1891 NA CS 12:00:00 NR 18.50 -84.20 295 295 _____________O -1 18.50 -84.20 MH 115 8 317
1891 NA CS 15:00:00 NR 18.91 -84.64 301 230 _____________P -1 18.91 -84.64 MH 117 13 314
1891 NA CS 18:00:00 NR 19.40 -85.20 230 160 _____________O -1 19.40 -85.20 MH 120 951 14 314
1891 NA CS 21:00:00 NR 19.90 -85.72 160 91 _____________P -1 19.90 -85.72 MH 115 13 314
1891 NA CS 1891-10-11 00:00:00 NR 20.30 -86.20 91 45 _____________O -1 20.30 -86.20 MH 110 10 305
1891 NA CS 03:00:00 NR 20.46 -86.57 45 30 _____________P -1 20.46 -86.57 MH 105 7 287
1891 NA CS 06:00:00 NR 20.50 -86.90 30 0 _____________O -1 20.50 -86.90 MH 100 7 280
1891 NA NA 09:00:00 NR 20.57 -87.26 0 0 _____________P -1 20.57 -87.26 MH 92 7 279
1891 NA NA 12:00:00 TS 20.60 -87.60 0 0 _____________O -1 20.60 -87.60 HU 85 6 269
1891 NA NA 15:00:00 TS 20.56 -87.87 0 0 _____________P -1 20.56 -87.87 HU 80 5 258
1891 NA NA 18:00:00 TS 20.50 -88.10 0 0 _____________O -1 20.50 -88.10 HU 75 5 256
1891 NA NA 21:00:00 TS 20.45 -88.35 0 0 _____________P -1 20.45 -88.35 HU 70 5 258
1891 NA NA 1891-10-12 00:00:00 TS 20.40 -88.60 0 0 _____________O -1 20.40 -88.60 HU 65 5 258
1891 NA NA 03:00:00 TS 20.35 -88.85 0 0 _____________P -1 20.35 -88.85 HU 60 5 258
1891 NA NA 06:00:00 TS 20.30 -89.10 0 0 _____________O -1 20.30 -89.10 TS 55 5 259
1891 NA NA 09:00:00 TS 20.26 -89.35 0 0 _____________P -1 20.26 -89.35 TS 50 5 258
1891 NA NA 12:00:00 TS 20.20 -89.60 0 0 _____________O -1 20.20 -89.60 TS 45 5 252
1891 NA NA 15:00:00 TS 20.11 -89.85 0 0 _____________P -1 20.11 -89.85 TS 42 5 247
1891 NA NA 18:00:00 TS 20.00 -90.10 0 0 _____________O -1 20.00 -90.10 TS 40 5 247
1891 NA NA 21:00:00 TS 19.91 -90.35 0 0 _____________P -1 19.91 -90.35 TS 40 5 247
1891 NA NA 1891-10-13 00:00:00 TS 19.80 -90.60 0 0 _____________O -1 19.80 -90.60 TS 40 5 241
1891 NA GM 03:00:00 TS 19.65 -90.85 20 20 _____________P -1 19.65 -90.85 TS 42 6 237
1891 NA GM 06:00:00 TS 19.50 -91.10 35 30 _____________O -1 19.50 -91.10 TS 45 5 242
1891 NA GM 09:00:00 TS 19.40 -91.36 45 39 _____________P -1 19.40 -91.36 TS 47 5 247
1891 NA GM 12:00:00 TS 19.30 -91.60 45 39 _____________O -1 19.30 -91.60 TS 50 5 239
1891 NA GM 15:00:00 TS 19.15 -91.81 38 38 _____________P -1 19.15 -91.81 TS 52 5 231
1891 NA GM 18:00:00 TS 19.00 -92.00 44 33 _____________O -1 19.00 -92.00 TS 55 5 235
1891 NA GM 21:00:00 TS 18.89 -92.20 33 22 _____________P -1 18.89 -92.20 TS 55 4 242
1891 NA GM 1891-10-14 00:00:00 TS 18.80 -92.40 22 11 _____________O -1 18.80 -92.40 TS 55 4 243
1891 NA GM 03:00:00 TS 18.70 -92.60 11 0 _____________P -1 18.70 -92.60 TS 55 4 242
1891 NA GM 06:00:00 TS 18.60 -92.80 10 10 _____________O -1 18.60 -92.80 TS 55 4 244
1891 NA GM 09:00:00 TS 18.51 -93.00 11 10 _____________P -1 18.51 -93.00 TS 52 4 242
1891 NA NA 12:00:00 TS 18.40 -93.20 11 0 _____________O -1 18.40 -93.20 TS 50 5 231
1891 NA NA 15:00:00 TS 18.21 -93.40 0 0 _____________P -1 18.21 -93.40 TS 47 6 223
1891 NA NA 18:00:00 TS 18.00 -93.60 0 0 _____________O -1 18.00 -93.60 TS 45 5 226
1891 NA NA 21:00:00 TS 17.84 -93.80 0 0 _____________P -1 17.84 -93.80 TS 35 5 232
1891 NA NA 1891-10-15 00:00:00 TS 17.70 -94.00 0 _____________O -1 17.70 -94.00 TD 25 5 235